M I D A S
Marine Information and Data Acquisition System
Tripno 599 of the Zeeleeuw from 2003-09-26 07:01:59 to 2003-09-26 15:27:12
Back to CruiseResearch ActivitiesStationsMapUnderway DataData graphs

EquipmentUnitsComment
TimeDGPSUTC
LatitudeDGPSDM.mWGS84
LongitudeDGPSDM.mWGS84
HeadingGyrodeg 
SOGDGPSknotsSpeed over ground
COGDGPSdegCourse over ground
DepthEcho soundermeters200 kHz
Missing or incorrect values are displayed as -999
Navigation data collected by the RV Zeeleeuw from 2003-09-26 07:01:59 to 2003-09-26 15:27:12
                                                                                    Next 1000 lines
Time Latitude Longitude Heading SOG COG Depth
2003-09-26 07:02:07 51°13.69 2°55.83 109.5 2.1 292 -999
2003-09-26 07:02:13 51°13.69 2°55.82 107.7 2.2 292 -999
2003-09-26 07:02:17 51°13.69 2°55.82 106 2.3 289 -999
2003-09-26 07:02:23 51°13.69 2°55.81 104.3 2.3 287 -999
2003-09-26 07:02:27 51°13.69 2°55.81 102.6 2.4 285 -999
2003-09-26 07:02:33 51°13.7 2°55.8 101 2.5 282 -999
2003-09-26 07:02:37 51°13.7 2°55.8 99.6 2.5 280 -999
2003-09-26 07:02:43 51°13.7 2°55.79 98.1 2.6 278 -999
2003-09-26 07:02:47 51°13.7 2°55.79 96.6 2.7 277 -999
2003-09-26 07:02:53 51°13.7 2°55.78 95.4 2.6 275 -999
2003-09-26 07:02:57 51°13.7 2°55.78 93.6 2.5 274 12.8
2003-09-26 07:03:01 51°13.7 2°55.77 92.6 2.4 273 -999
2003-09-26 07:03:07 51°13.7 2°55.77 91.3 2.4 271 13.4
2003-09-26 07:03:11 51°13.7 2°55.76 90 2.3 271 13.1
2003-09-26 07:03:15 51°13.7 2°55.76 89.1 2.2 270 12.7
2003-09-26 07:03:21 51°13.7 2°55.75 88 1.9 268 12.5
2003-09-26 07:03:25 51°13.7 2°55.75 86.2 1.6 267 12.4
2003-09-26 07:03:31 51°13.7 2°55.75 83.5 1.3 267 12.4
2003-09-26 07:03:35 51°13.7 2°55.74 81 0.8 269 12.5
2003-09-26 07:03:41 51°13.7 2°55.74 77.6 0.4 283 12.4
2003-09-26 07:03:47 51°13.7 2°55.74 73.2 0.2 3 12.4
2003-09-26 07:03:51 51°13.7 2°55.74 69.1 0.4 36 12.4
2003-09-26 07:03:55 51°13.7 2°55.75 62.6 0.7 41 12.4
2003-09-26 07:04:01 51°13.7 2°55.75 56.8 0.9 41 12.9
2003-09-26 07:04:05 51°13.7 2°55.75 51 1.2 38 13
2003-09-26 07:04:11 51°13.7 2°55.75 46.4 1.4 35 13.2
2003-09-26 07:04:17 51°13.71 2°55.75 40.8 1.6 28 12.5
2003-09-26 07:04:21 51°13.71 2°55.75 33.9 1.7 24 12.7
2003-09-26 07:04:27 51°13.71 2°55.75 29.1 1.9 18 12.6
2003-09-26 07:04:31 51°13.71 2°55.76 23.3 2 12 11.8
2003-09-26 07:04:35 51°13.71 2°55.76 17.4 2.1 6 11.7
2003-09-26 07:04:41 51°13.72 2°55.76 11.6 2.2   11.2
2003-09-26 07:04:47 51°13.72 2°55.76 5.7 2.4 355 10.4
2003-09-26 07:04:52 51°13.73 2°55.75   2.4 350 10.1
2003-09-26 07:04:57 51°13.73 2°55.75 354.4 2.7 343 9.8
2003-09-26 07:05:02 51°13.73 2°55.75 348.4 2.8 338 9.8
2003-09-26 07:05:07 51°13.74 2°55.75 342.1 3.1 333 9.6
2003-09-26 07:05:11 51°13.74 2°55.74 336 3.3 328 9.8
2003-09-26 07:05:17 51°13.74 2°55.74 331.2 3.6 325 9.8
2003-09-26 07:05:21 51°13.75 2°55.73 328.8 3.9 324 9.8
2003-09-26 07:05:27 51°13.75 2°55.73 327.2 4.4 322 9.9
2003-09-26 07:05:31 51°13.76 2°55.72 326.8 4.7 322 9.7
2003-09-26 07:05:35 51°13.76 2°55.72 326.3 4.9 322 9.5
2003-09-26 07:05:41 51°13.77 2°55.71 325.1 5.3 320 9.6
2003-09-26 07:05:47 51°13.78 2°55.7 324.5 5.7 320 9.7
2003-09-26 07:05:51 51°13.78 2°55.69 324.1 5.9 320 9.6
2003-09-26 07:05:55 51°13.79 2°55.68 324.4 6.2 321 9.8
2003-09-26 07:06:01 51°13.79 2°55.67 325.1 6.3 321 10
2003-09-26 07:06:08 51°13.8 2°55.66 325.8 6.6 322 9.9
2003-09-26 07:06:11 51°13.81 2°55.66 326.6 6.7 323 10.1
2003-09-26 07:06:15 51°13.82 2°55.65 328 6.8 325 10.2
2003-09-26 07:06:22 51°13.83 2°55.64 329.8 7 327 9.8
2003-09-26 07:06:28 51°13.84 2°55.63 331.7 7.1 329 9.9
2003-09-26 07:06:32 51°13.84 2°55.62 333.8 7.2 330 9.4
2003-09-26 07:06:36 51°13.85 2°55.62 335.8 7.3 332 9.7
2003-09-26 07:06:41 51°13.86 2°55.61 337.9 7.4 334 9.7
2003-09-26 07:06:47 51°13.87 2°55.6 339 7.4 334 9.8
2003-09-26 07:06:52 51°13.88 2°55.59 339.6 7.5 335 9.7
2003-09-26 07:06:56 51°13.89 2°55.59 339.6 7.6 335 9.9
2003-09-26 07:07:01 51°13.9 2°55.58 339.2 7.6 335 10
2003-09-26 07:07:08 51°13.91 2°55.57 339.5 7.7 335 10.1
2003-09-26 07:07:11 51°13.92 2°55.56 340 7.7 335 9.9
2003-09-26 07:07:15 51°13.93 2°55.56 339.7 7.8 334 9.9
2003-09-26 07:07:20 51°13.94 2°55.55 339.6 7.8 335 10
2003-09-26 07:07:27 51°13.95 2°55.54 340.1 7.8 336 10
2003-09-26 07:07:31 51°13.96 2°55.54 340.9 7.9 337 10.1
2003-09-26 07:07:37 51°13.97 2°55.53 341.6 7.9 337 9.9
2003-09-26 07:07:41 51°13.98 2°55.52 341.6 7.8 337 9.8
2003-09-26 07:07:47 51°13.99 2°55.51 341.1 7.9 336 9.8
2003-09-26 07:07:51 51°14 2°55.51 341 7.9 337 9.8
2003-09-26 07:07:55 51°14.01 2°55.5 341.1 7.9 337 9.7
2003-09-26 07:08:01 51°14.02 2°55.5 341.5 7.9 337 9.7
2003-09-26 07:08:07 51°14.03 2°55.49 341.6 7.8 337 9.6
2003-09-26 07:08:11 51°14.04 2°55.48 341.6 7.8 337 9.6
2003-09-26 07:08:16 51°14.05 2°55.48 340.9 7.8 336 9.6
2003-09-26 07:08:22 51°14.06 2°55.47 340.2 7.8 336 9.6
2003-09-26 07:08:28 51°14.07 2°55.46 340 7.8 335 9.5
2003-09-26 07:08:32 51°14.08 2°55.45 339.5 7.8 335 9.5
2003-09-26 07:08:36 51°14.09 2°55.45 338.9 7.8 334 9.5
2003-09-26 07:08:42 51°14.1 2°55.44 338.4 7.8 334 9.5
2003-09-26 07:08:47 51°14.11 2°55.43 338.2 7.7 334 9.5
2003-09-26 07:08:51 51°14.12 2°55.42 338.1 7.7 334 9.5
2003-09-26 07:08:55 51°14.13 2°55.42 337.7 7.8 333 9.5
2003-09-26 07:09:01 51°14.14 2°55.41 337.1 7.9 333 10
2003-09-26 07:09:07 51°14.15 2°55.4 335.8 8.1 331 9.9
2003-09-26 07:09:12 51°14.16 2°55.39 334.2 8.3 329 9.8
2003-09-26 07:09:16 51°14.17 2°55.38 333.5 8.4 329 9.8
2003-09-26 07:09:22 51°14.18 2°55.37 332.3 8.5 327 9.9
2003-09-26 07:09:27 51°14.19 2°55.36 330.8 8.7 325 9.9
2003-09-26 07:09:31 51°14.2 2°55.35 329 8.8 324 9.9
2003-09-26 07:09:35 51°14.2 2°55.34 327.4 8.8 322 9.8
2003-09-26 07:09:39 51°14.21 2°55.33 325.8 8.9 320 9.8
2003-09-26 07:09:47 51°14.23 2°55.31 323.7 9 318 9.9
2003-09-26 07:09:51 51°14.23 2°55.3 321.9 9 317 9.8
2003-09-26 07:09:57 51°14.24 2°55.28 320 9 314 9.9
2003-09-26 07:10:01 51°14.25 2°55.27 318.6 9 314 10.1
2003-09-26 07:10:07 51°14.26 2°55.25 317.1 9.1 312 10.3
2003-09-26 07:10:11 51°14.27 2°55.24 316.2 9.1 312 10.2
2003-09-26 07:10:17 51°14.28 2°55.22 316.1 9.2 312 10.3
2003-09-26 07:10:21 51°14.28 2°55.21 316.1 9.2 312 10.3
2003-09-26 07:10:27 51°14.29 2°55.19 316.1 9.3 311 10.2
2003-09-26 07:10:31 51°14.3 2°55.18 315.6 9.3 311 10.3
2003-09-26 07:10:35 51°14.31 2°55.17 315 9.4 311 10.2
2003-09-26 07:10:39 51°14.32 2°55.15 314.5 9.4 310 10.3
2003-09-26 07:10:47 51°14.33 2°55.13 314.3 9.5 310 10.2
2003-09-26 07:10:51 51°14.34 2°55.11 314.1 9.5 310 10.4
2003-09-26 07:10:55 51°14.34 2°55.1 313.7 9.6 310 10.3
2003-09-26 07:11:01 51°14.35 2°55.08 313.6 9.7 310 10.1
2003-09-26 07:11:07 51°14.36 2°55.06 313.5 9.8 309 10
2003-09-26 07:11:11 51°14.37 2°55.05 313.5 9.8 308 10.1
2003-09-26 07:11:15 51°14.38 2°55.04 312.8 9.9 305 10.1
2003-09-26 07:11:21 51°14.39 2°55.01 311.7 9.9 304 10.1
2003-09-26 07:11:27 51°14.39 2°54.99 311.2 10.1 304 9.8
2003-09-26 07:11:31 51°14.4 2°54.98 312.6 10.1 306 10
2003-09-26 07:11:35 51°14.41 2°54.96 315.6 10.1 309 10.1
2003-09-26 07:11:41 51°14.42 2°54.94 318.7 10.1 311 10
2003-09-26 07:11:47 51°14.43 2°54.92 319.8 10.3 310 10.2
2003-09-26 07:11:51 51°14.44 2°54.91 320 10.3 310 9.7
2003-09-26 07:11:57 51°14.45 2°54.89 319.7 10.4 309 10.2
2003-09-26 07:11:59 51°14.45 2°54.88 319.5 10.4 309 9.6
2003-09-26 07:12:05 51°14.46 2°54.86 319.4 10.5 310 9.6
2003-09-26 07:12:11 51°14.47 2°54.84 320.2 10.4 311 9.3
2003-09-26 07:12:15 51°14.48 2°54.82 322.3 10.5 314 9.2
2003-09-26 07:12:19 51°14.49 2°54.81 324.8 10.4 315 9.2
2003-09-26 07:12:27 51°14.51 2°54.79 327.6 10.4 319 9.1
2003-09-26 07:12:32 51°14.52 2°54.77 330.4 10.3 321 9.1
2003-09-26 07:12:36 51°14.53 2°54.76 333.4 10.3 324 9
2003-09-26 07:12:41 51°14.54 2°54.75 336.7 10.3 327 9.1
2003-09-26 07:12:47 51°14.56 2°54.74 339.2 10.4 329 8.9
2003-09-26 07:12:51 51°14.57 2°54.73 340.5 10.5 330 8.9
2003-09-26 07:12:55 51°14.58 2°54.72 341.4 10.6 331 9
2003-09-26 07:13:01 51°14.59 2°54.7 342.5 10.7 332 8.9
2003-09-26 07:13:07 51°14.61 2°54.69 344.1 10.7 334 8.7
2003-09-26 07:13:11 51°14.62 2°54.68 345.9 10.8 335 8.8
2003-09-26 07:13:15 51°14.63 2°54.68 347 10.8 336 8.7
2003-09-26 07:13:19 51°14.64 2°54.67 347.3 10.8 336 8.6
2003-09-26 07:13:27 51°14.66 2°54.65 347.5 10.8 336 8.7
2003-09-26 07:13:31 51°14.67 2°54.64 347.4 10.9 335 8.7
2003-09-26 07:13:37 51°14.69 2°54.63 346.9 10.9 335 8.6
2003-09-26 07:13:41 51°14.7 2°54.62 346.7 10.9 335 8.7
2003-09-26 07:13:47 51°14.72 2°54.61 346.5 10.9 336 8.8
2003-09-26 07:13:51 51°14.73 2°54.6 346.9 10.9 337 8.9
2003-09-26 07:13:55 51°14.74 2°54.6 347.2 11 337 8.8
2003-09-26 07:14:01 51°14.76 2°54.59 348.1 10.9 338 8.7
2003-09-26 07:14:07 51°14.77 2°54.57 348.6 11 338 8.7
2003-09-26 07:14:11 51°14.78 2°54.57 349.1 10.9 338 8.7
2003-09-26 07:14:15 51°14.8 2°54.56 349.2 10.9 339 8.6
2003-09-26 07:14:21 51°14.81 2°54.55 349.6 10.9 340 8.5
2003-09-26 07:14:27 51°14.83 2°54.54 350.4 10.9 342 8.5
2003-09-26 07:14:31 51°14.84 2°54.54 351.2 10.9 342 8.4
2003-09-26 07:14:35 51°14.85 2°54.53 351.4 10.9 343 8.4
2003-09-26 07:14:41 51°14.87 2°54.52 351.3 10.9 343 8.4
2003-09-26 07:14:47 51°14.89 2°54.51 350.5 10.9 341 8.4
2003-09-26 07:14:51 51°14.9 2°54.51 349.7 10.9 341 8.3
2003-09-26 07:14:55 51°14.91 2°54.5 349.1 10.9 340 8.3
2003-09-26 07:15:01 51°14.93 2°54.49 348.4 10.9 340 8.1
2003-09-26 07:15:07 51°14.94 2°54.48 348.1 10.9 339 8.2
2003-09-26 07:15:11 51°14.96 2°54.47 347.7 10.9 339 7.9
2003-09-26 07:15:15 51°14.97 2°54.46 347.6 10.9 339 7.9
2003-09-26 07:15:21 51°14.98 2°54.45 347.7 10.9 339 7.7
2003-09-26 07:15:25 51°15 2°54.45 348.3 10.8 341 7.7
2003-09-26 07:15:31 51°15.01 2°54.44 349.4 10.8 341 7.7
2003-09-26 07:15:35 51°15.02 2°54.43 350.5 10.8 342 7.6
2003-09-26 07:15:41 51°15.04 2°54.42 351.5 10.7 343 7.7
2003-09-26 07:15:47 51°15.06 2°54.42 352 10.7 343 7.7
2003-09-26 07:15:51 51°15.07 2°54.41 352.7 10.7 343 7.7
2003-09-26 07:15:57 51°15.09 2°54.4 352.9 10.7 344 7.7
2003-09-26 07:16:01 51°15.1 2°54.4 353.1 10.7 344 7.6
2003-09-26 07:16:07 51°15.12 2°54.39 353.3 10.7 343 7.7
2003-09-26 07:16:11 51°15.13 2°54.38 353 10.7 344 -999
2003-09-26 07:16:15 51°15.14 2°54.38 352.8 10.7 345 7.8
2003-09-26 07:16:21 51°15.16 2°54.37 355.9 10.6 350 7.9
2003-09-26 07:16:27 51°15.17 2°54.37 1.9 10.4 358 7.8
2003-09-26 07:16:31 51°15.18 2°54.37 9 10.3 5 7.9
2003-09-26 07:16:37 51°15.2 2°54.38 14.7 10.1 9 7.9
2003-09-26 07:16:41 51°15.21 2°54.38 18.6 10.1 12 8
2003-09-26 07:16:47 51°15.23 2°54.39 20.6 10.1 13 8.1
2003-09-26 07:16:51 51°15.24 2°54.39 21.4 10.1 14 8.1
2003-09-26 07:16:55 51°15.25 2°54.4 21 10.2 13 8.1
2003-09-26 07:17:01 51°15.27 2°54.4 20.4 10.2 13 8.1
2003-09-26 07:17:07 51°15.28 2°54.41 20.3 10.2 12 8.2
2003-09-26 07:17:11 51°15.29 2°54.41 20.2 10.2 12 8.1
2003-09-26 07:17:15 51°15.31 2°54.41 18.6 10.3 9 8.2
2003-09-26 07:17:21 51°15.32 2°54.42 17 10.3 8 8.3
2003-09-26 07:17:25 51°15.33 2°54.42 15.9 10.3 7 8.2
2003-09-26 07:17:31 51°15.35 2°54.42 15.3 10.3 6 8.4
2003-09-26 07:17:37 51°15.37 2°54.43 15.4 10.3 6 8.4
2003-09-26 07:17:41 51°15.38 2°54.43 14.7 10.3 5 8.3
2003-09-26 07:17:47 51°15.4 2°54.43 13.6 10.4 4 8.3
2003-09-26 07:17:51 51°15.41 2°54.43 13 10.4 3 8.4
2003-09-26 07:17:55 51°15.42 2°54.43 12.8 10.4 4 8.5
2003-09-26 07:18:01 51°15.44 2°54.44 13.3 10.4 4 8.6
2003-09-26 07:18:07 51°15.45 2°54.44 14.1 10.3 6 8.5
2003-09-26 07:18:11 51°15.47 2°54.44 14.3 10.3 5 8.7
2003-09-26 07:18:15 51°15.48 2°54.44 13.8 10.4 5 8.7
2003-09-26 07:18:21 51°15.49 2°54.44 13.7 10.4 5 8.7
2003-09-26 07:18:27 51°15.51 2°54.45 13.6 10.3 3 8.8
2003-09-26 07:18:31 51°15.52 2°54.45 11.9 10.3 1 8.8
2003-09-26 07:18:35 51°15.53 2°54.45 9.3 10.4 358 8.8
2003-09-26 07:18:41 51°15.55 2°54.44 6.7 10.5 356 8.8
2003-09-26 07:18:47 51°15.57 2°54.44 4.8 10.5 354 8.8
2003-09-26 07:18:51 51°15.58 2°54.44 4 10.5 354 8.9
2003-09-26 07:18:55 51°15.59 2°54.44 3.7 10.5 353 9
2003-09-26 07:19:01 51°15.61 2°54.43 3.5 10.5 353 9
2003-09-26 07:19:07 51°15.63 2°54.43 2.6 10.6 352 9
2003-09-26 07:19:11 51°15.64 2°54.43 2 10.7 351 9
2003-09-26 07:19:17 51°15.66 2°54.42 1.4 10.7 351 9.2
2003-09-26 07:19:21 51°15.67 2°54.42 0.4 10.7 350 9.2
2003-09-26 07:19:27 51°15.69 2°54.41   10.7 350 9.2
2003-09-26 07:19:31 51°15.7 2°54.41 359.6 10.8 349 9.3
2003-09-26 07:19:37 51°15.72 2°54.4 359.2 10.8 349 9.4
2003-09-26 07:19:41 51°15.73 2°54.4 359.2 10.8 349 9.5
2003-09-26 07:19:47 51°15.74 2°54.4 359.6 10.6 353 7.6
2003-09-26 07:19:51 51°15.76 2°54.4 2.8 10.5 354 9.5
2003-09-26 07:19:55 51°15.77 2°54.39 2.9 10.5 353 9.6
2003-09-26 07:20:01 51°15.79 2°54.39 1.5 10.6 350 9.7
2003-09-26 07:20:07 51°15.8 2°54.39 1.4 10.6 353 9.8
2003-09-26 07:20:11 51°15.81 2°54.38 1.5 10.5 351 9.8
2003-09-26 07:20:15 51°15.83 2°54.38 359.9 10.6 350 9.8
2003-09-26 07:20:21 51°15.84 2°54.37 356.3 10.6 344 9.9
2003-09-26 07:20:27 51°15.86 2°54.36 353.4 10.7 341 10
2003-09-26 07:20:31 51°15.87 2°54.35 350.5 10.7 338 10
2003-09-26 07:20:37 51°15.89 2°54.34 347.8 10.8 334 10
2003-09-26 07:20:41 51°15.9 2°54.33 342.6 10.9 329 10.1
2003-09-26 07:20:47 51°15.91 2°54.32 339.9 11 327 10.1
2003-09-26 07:20:51 51°15.92 2°54.31 337.2 11 325 10.3
2003-09-26 07:20:57 51°15.94 2°54.29 336.4 11.1 325 10.3
2003-09-26 07:21:01 51°15.95 2°54.28 336.2 11.1 325 10.3
2003-09-26 07:21:07 51°15.96 2°54.26 336 10.6 324 10.3
2003-09-26 07:21:11 51°15.97 2°54.25 335.1 10.3 323 10.4
2003-09-26 07:21:15 51°15.98 2°54.24 334.3 9.9 322 10.5
2003-09-26 07:21:21 51°15.99 2°54.22 333.6 9.6 321 10.5
2003-09-26 07:21:27 51°16 2°54.21 332.9 9 321 10.5
2003-09-26 07:21:31 51°16.01 2°54.2 332.3 8.7 320 10.7
2003-09-26 07:21:35 51°16.02 2°54.19 332.3 8.2 321 10.7
2003-09-26 07:21:41 51°16.03 2°54.18 334.8 7.8 325 10.7
2003-09-26 07:21:47 51°16.04 2°54.17 340.4 7.2 330 10.7
2003-09-26 07:21:51 51°16.05 2°54.16 344.7 6.8 334 10.8
2003-09-26 07:21:57 51°16.06 2°54.16 350.5 6.3 341 10.8
2003-09-26 07:22:01 51°16.06 2°54.15 356.3 6 346 10.9
2003-09-26 07:22:07 51°16.07 2°54.15 2 5.6 353 10.9
2003-09-26 07:22:11 51°16.08 2°54.15 8.3 5.3 357 10.9
2003-09-26 07:22:15 51°16.08 2°54.15 13.2 4.8 3 10.8
2003-09-26 07:22:21 51°16.09 2°54.15 17.5 4.7 5 10.9
2003-09-26 07:22:27 51°16.1 2°54.16 20.3 4.2 10 10.9
2003-09-26 07:22:31 51°16.1 2°54.16 24.3 4 13 10.9
2003-09-26 07:22:37 51°16.11 2°54.16 26.8 3.7 19 11
2003-09-26 07:22:41 51°16.11 2°54.16 29.6 3.6 20 11
2003-09-26 07:22:47 51°16.12 2°54.17 31.8 3.5 24 11
2003-09-26 07:22:51 51°16.12 2°54.17 33.7 3.4 24 10.9
2003-09-26 07:22:57 51°16.13 2°54.17 35 3.3 29 11
2003-09-26 07:23:01 51°16.13 2°54.18 36 3.2 27 11
2003-09-26 07:23:07 51°16.13 2°54.18 36.5 3.2 30 10.9
2003-09-26 07:23:11 51°16.14 2°54.18 37 3.2 29 10.9
2003-09-26 07:23:15 51°16.14 2°54.19 37 3.1 29 10.9
2003-09-26 07:23:21 51°16.14 2°54.19 37 3.1 28 11
2003-09-26 07:23:27 51°16.15 2°54.19 36.7 3 28 10.9
2003-09-26 07:23:31 51°16.15 2°54.2 36.2 3 29 10.9
2003-09-26 07:23:35 51°16.15 2°54.2 35.9 3 29 11
2003-09-26 07:23:41 51°16.16 2°54.2 35.5 3 29 11
2003-09-26 07:23:47 51°16.16 2°54.21 35.2 3.1 28 11
2003-09-26 07:23:51 51°16.17 2°54.21 35.2 3.1 27 11
2003-09-26 07:23:55 51°16.17 2°54.21 35.2 3.1 29 11.1
2003-09-26 07:24:01 51°16.17 2°54.21 35.3 3.1 27 11.1
2003-09-26 07:24:07 51°16.18 2°54.22 35.5 3.2 29 11.1
2003-09-26 07:24:11 51°16.18 2°54.22 35.7 3.1 26 11
2003-09-26 07:24:17 51°16.19 2°54.22 35.8 2.9 29 11
2003-09-26 07:24:21 51°16.19 2°54.23 35.9 2.8 26 10.9
2003-09-26 07:24:27 51°16.19 2°54.23 35.5 2.7 28 11
2003-09-26 07:24:31 51°16.2 2°54.23 35.3 2.6 25 11
2003-09-26 07:24:35 51°16.2 2°54.23 35.3 2.5 28 11.1
2003-09-26 07:24:41 51°16.2 2°54.24 35.4 2.5 25 11
2003-09-26 07:24:45 51°16.2 2°54.24 35.5 2.5 25 11
2003-09-26 07:24:51 51°16.21 2°54.24 35.6 2.5 25 11.1
2003-09-26 07:24:55 51°16.21 2°54.24 35.9 2.4 26 11.1
2003-09-26 07:25:01 51°16.21 2°54.25 36 2.4 25 11.2
2003-09-26 07:25:07 51°16.22 2°54.25 36 2.4 26 11.1
2003-09-26 07:25:11 51°16.22 2°54.25 36.1 2.4 27 11.1
2003-09-26 07:25:15 51°16.22 2°54.25 36.2 2.4 27 11
2003-09-26 07:25:21 51°16.23 2°54.26 36.4 2.3 26 11.1
2003-09-26 07:25:25 51°16.23 2°54.26 36.4 2.1 28 11
2003-09-26 07:25:31 51°16.23 2°54.26 36.3 2 25 11
2003-09-26 07:25:35 51°16.23 2°54.26 35.9 1.9 26 11.1
2003-09-26 07:25:41 51°16.24 2°54.26 35.2 1.8 22 11.1
2003-09-26 07:25:47 51°16.24 2°54.26 34.3 1.7 22 11.1
2003-09-26 07:25:51 51°16.24 2°54.27 32.8 1.6 18 11
2003-09-26 07:25:55 51°16.24 2°54.27 31.9 1.6 17 11
2003-09-26 07:26:01 51°16.24 2°54.27 30.6 1.5 14 11.1
2003-09-26 07:26:07 51°16.25 2°54.27 29.7 0.9 7 11.1
2003-09-26 07:26:11 51°16.25 2°54.27 29 0.6 350 11.1
2003-09-26 07:26:15 51°16.25 2°54.27 28.9 0.3 283 11.1
2003-09-26 07:26:21 51°16.25 2°54.26 28.3 0.6 251 11.1
2003-09-26 07:26:27 51°16.25 2°54.26 27.7 0.6 242 11.2
2003-09-26 07:26:31 51°16.25 2°54.26 26.8 0.6 246 11.2
2003-09-26 07:26:37 51°16.25 2°54.26 26.2 0.6 240 11.2
2003-09-26 07:26:41 51°16.24 2°54.26 25.3 0.6 241 11.1
2003-09-26 07:26:47 51°16.24 2°54.26 24.9 0.6 238 11.1
2003-09-26 07:26:51 51°16.24 2°54.26 24.4 0.7 238 11.2
2003-09-26 07:26:57 51°16.24 2°54.26 23.7 0.6 234 11.2
2003-09-26 07:27:01 51°16.24 2°54.26 23.2 0.7 238 11.1
2003-09-26 07:27:07 51°16.24 2°54.25 22.7 0.7 233 11.2
2003-09-26 07:27:11 51°16.24 2°54.25 22.2 0.7 238 11.2
2003-09-26 07:27:15 51°16.24 2°54.25 21.5 0.7 233 11.2
2003-09-26 07:27:21 51°16.24 2°54.25 20.8 0.8 239 11.1
2003-09-26 07:27:27 51°16.24 2°54.25 20 0.7 235 11.2
2003-09-26 07:27:31 51°16.24 2°54.25 19.2 0.8 239 11.3
2003-09-26 07:27:35 51°16.24 2°54.25 18.5 0.8 235 11.2
2003-09-26 07:27:41 51°16.24 2°54.24 18.1 0.8 237 11.1
2003-09-26 07:27:47 51°16.24 2°54.24 17.4 0.8 235 11.2
2003-09-26 07:27:51 51°16.24 2°54.24 17.2 0.8 237 11.1
2003-09-26 07:27:57 51°16.24 2°54.24 16.6 0.8 234 11.1
2003-09-26 07:28:01 51°16.24 2°54.24 16.3 0.9 238 11.1
2003-09-26 07:28:07 51°16.23 2°54.24 15.9 0.8 232 11.2
2003-09-26 07:28:11 51°16.23 2°54.24 15.9 0.9 240 11.2
2003-09-26 07:28:15 51°16.23 2°54.24 15.7 0.8 230 11.1
2003-09-26 07:28:21 51°16.23 2°54.23 15.3 0.9 239 11.2
2003-09-26 07:28:27 51°16.23 2°54.23 15.1 0.8 231 11.3
2003-09-26 07:28:31 51°16.23 2°54.23 14.7 0.9 234 11.1
2003-09-26 07:28:35 51°16.23 2°54.23 14.6 0.9 230 11.2
2003-09-26 07:28:41 51°16.23 2°54.23 14.5 0.9 236 11.1
2003-09-26 07:28:45 51°16.23 2°54.23 14.5 0.9 232 11.2
2003-09-26 07:28:51 51°16.23 2°54.22 14.6 0.9 237 11.1
2003-09-26 07:28:55 51°16.23 2°54.22 14.5 0.9 230 11.1
2003-09-26 07:29:01 51°16.23 2°54.22 14.3 1 234 11.2
2003-09-26 07:29:07 51°16.23 2°54.22 13.9 0.9 233 11.2
2003-09-26 07:29:11 51°16.23 2°54.22 13.7 0.9 252 11.2
2003-09-26 07:29:15 51°16.23 2°54.22 13.2 0.6 290 11.1
2003-09-26 07:29:21 51°16.23 2°54.21 10.8 0.9 304 11.1
2003-09-26 07:29:27 51°16.23 2°54.21 7.4 1.7 328 11.2
2003-09-26 07:29:31 51°16.23 2°54.21 2.9 2.5 331 11.1
2003-09-26 07:29:35 51°16.23 2°54.21 356.4 3.7 326 11.1
2003-09-26 07:29:41 51°16.24 2°54.2 348.7 4.4 323 11.1
2003-09-26 07:29:47 51°16.25 2°54.19 340.6 5.6 315 11.2
2003-09-26 07:29:51 51°16.25 2°54.18 333.9 6.4 313 11.2
2003-09-26 07:29:55 51°16.26 2°54.17 330.1 7.3 313 11.1
2003-09-26 07:30:01 51°16.27 2°54.16 329.2 7.8 313 11.2
2003-09-26 07:30:07 51°16.28 2°54.14 329.6 8.4 315 11.2
2003-09-26 07:30:11 51°16.28 2°54.13 330.4 9 316 11.2
2003-09-26 07:30:15 51°16.29 2°54.12 330.9 9.8 317 11.3
2003-09-26 07:30:21 51°16.3 2°54.1 331.3 10.2 317 11.2
2003-09-26 07:30:27 51°16.32 2°54.08 331.4 10.8 317 11.2
2003-09-26 07:30:31 51°16.32 2°54.07 331.3 11.2 317 11.2
2003-09-26 07:30:35 51°16.33 2°54.05 331.5 11.6 317 11.2
2003-09-26 07:30:41 51°16.35 2°54.03 331.4 11.9 317 11.2
2003-09-26 07:30:47 51°16.36 2°54.01 331.2 12.2 316 11.2
2003-09-26 07:30:51 51°16.37 2°53.99 329.3 12.5 314 11.3
2003-09-26 07:30:55 51°16.38 2°53.98 326.9 12.9 312 11.3
2003-09-26 07:31:01 51°16.4 2°53.95 325.1 13 311 11.4
2003-09-26 07:31:07 51°16.41 2°53.92 324.1 13.2 310 11.4
2003-09-26 07:31:11 51°16.42 2°53.91 323.3 13.3 310 11.4
2003-09-26 07:31:15 51°16.43 2°53.89 323.4 13.3 313 11.5
2003-09-26 07:31:21 51°16.45 2°53.86 324.8 13.2 314 11.5
2003-09-26 07:31:27 51°16.46 2°53.84 324.9 13.3 313 11.4
2003-09-26 07:31:31 51°16.47 2°53.82 323.7 13.3 312 11.4
2003-09-26 07:31:37 51°16.49 2°53.79 321.9 13.4 310 11.4
2003-09-26 07:31:41 51°16.49 2°53.77 320.7 13.4 310 11.4
2003-09-26 07:31:47 51°16.51 2°53.75 319.6 13.4 309 11.4
2003-09-26 07:31:51 51°16.52 2°53.73 318.8 13.4 308 11.6
2003-09-26 07:31:57 51°16.53 2°53.7 318.2 13.5 308 11.5
2003-09-26 07:32:01 51°16.54 2°53.68 317.9 13.5 308 11.4
2003-09-26 07:32:07 51°16.55 2°53.65 317.8 13.5 308 11.5
2003-09-26 07:32:11 51°16.56 2°53.64 317.8 13.5 308 11.4
2003-09-26 07:32:15 51°16.57 2°53.62 317.9 13.4 308 11.4
2003-09-26 07:32:21 51°16.59 2°53.59 318.2 13.4 309 11.4
2003-09-26 07:32:27 51°16.6 2°53.56 318.3 13.5 309 11.5
2003-09-26 07:32:31 51°16.61 2°53.54 318.7 13.4 310 11.4
2003-09-26 07:32:37 51°16.63 2°53.52 319.1 13.4 310 11.3
2003-09-26 07:32:41 51°16.64 2°53.5 319.4 13.4 311 11.2
2003-09-26 07:32:47 51°16.65 2°53.47 319.7 13.4 310 11.2
2003-09-26 07:32:51 51°16.66 2°53.45 319.6 13.4 310 11
2003-09-26 07:32:55 51°16.67 2°53.43 319.3 13.4 310 11.2
2003-09-26 07:33:01 51°16.68 2°53.41 319.1 13.4 309 11.1
2003-09-26 07:33:07 51°16.7 2°53.38 318.5 13.4 309 11
2003-09-26 07:33:11 51°16.71 2°53.36 318.2 13.4 308 10.9
2003-09-26 07:33:17 51°16.72 2°53.33 317.9 13.4 308 10.8
2003-09-26 07:33:21 51°16.73 2°53.31 317.6 13.4 308 10.8
2003-09-26 07:33:27 51°16.74 2°53.29 317.7 13.4 308 10.8
2003-09-26 07:33:31 51°16.75 2°53.27 317.9 13.4 309 10.7
2003-09-26 07:33:35 51°16.76 2°53.25 318.3 13.4 309 10.6
2003-09-26 07:33:41 51°16.78 2°53.22 318.7 13.3 310 10.6
2003-09-26 07:33:47 51°16.79 2°53.19 319.4 13.4 310 10.4
2003-09-26 07:33:51 51°16.8 2°53.18 319.7 13.3 310 10.3
2003-09-26 07:33:57 51°16.81 2°53.15 319.7 13.3 310 10.1
2003-09-26 07:34:01 51°16.82 2°53.13 319.2 13.2 309 9.6
2003-09-26 07:34:05 51°16.83 2°53.11 318.8 13.2 309 9.2
2003-09-26 07:34:11 51°16.85 2°53.09 318.4 13.1 308 8.5
2003-09-26 07:34:15 51°16.85 2°53.07 318.1 12.8 308 8
2003-09-26 07:34:21 51°16.87 2°53.04 317.9 12.7 308 7.9
2003-09-26 07:34:27 51°16.88 2°53.02 317.7 12.5 308 7.7
2003-09-26 07:34:31 51°16.89 2°53 318.3 12.4 309 7.8
2003-09-26 07:34:35 51°16.9 2°52.98 319.3 12.4 310 7.7
2003-09-26 07:34:41 51°16.91 2°52.96 320.5 12.4 311 7.9
2003-09-26 07:34:47 51°16.93 2°52.93 321.6 12.5 313 8
2003-09-26 07:34:51 51°16.94 2°52.92 322.7 12.6 313 8.2
2003-09-26 07:34:55 51°16.95 2°52.9 323.3 12.6 314 8.3
2003-09-26 07:35:01 51°16.96 2°52.88 323.9 12.7 314 8.6
2003-09-26 07:35:07 51°16.97 2°52.85 324.3 12.9 314 8.6
2003-09-26 07:35:11 51°16.98 2°52.84 324.3 13 314 8.9
2003-09-26 07:35:17 51°17 2°52.81 323.7 13.1 313 9.1
2003-09-26 07:35:21 51°17.01 2°52.79 322.3 13.1 311 9.1
2003-09-26 07:35:27 51°17.02 2°52.77 320.6 13.3 309 9.2
2003-09-26 07:35:31 51°17.03 2°52.75 318.8 13.3 308 9.2
2003-09-26 07:35:35 51°17.04 2°52.73 317.5 13.4 306 9.4
2003-09-26 07:35:41 51°17.05 2°52.7 316.2 13.4 306 9.5
2003-09-26 07:35:45 51°17.06 2°52.68 315.7 13.5 306 9.5
2003-09-26 07:35:51 51°17.08 2°52.65 316 13.4 306 9.2
2003-09-26 07:35:55 51°17.09 2°52.63 316.9 13.3 307 9
2003-09-26 07:36:01 51°17.1 2°52.6 317.8 13.2 308 9
2003-09-26 07:36:07 51°17.11 2°52.58 318.8 13 309 8.9
2003-09-26 07:36:11 51°17.12 2°52.56 319.5 13 309 9.2
2003-09-26 07:36:17 51°17.14 2°52.53 320 13.1 310 9
2003-09-26 07:36:21 51°17.14 2°52.52 320.3 13.1 310 9.2
2003-09-26 07:36:27 51°17.16 2°52.49 320.3 13.2 310 9.2
2003-09-26 07:36:31 51°17.17 2°52.47 319.7 13.2 309 9.1
2003-09-26 07:36:37 51°17.18 2°52.44 320.5 13.2 311 9.4
2003-09-26 07:36:41 51°17.19 2°52.43 321.9 13.2 312 9.3
2003-09-26 07:36:47 51°17.21 2°52.4 323.2 13.2 315 9.4
2003-09-26 07:36:51 51°17.22 2°52.39 325 13.2 315 9.4
2003-09-26 07:36:55 51°17.23 2°52.37 326.3 13.1 318 9.6
2003-09-26 07:37:01 51°17.24 2°52.35 328.3 13 319 9.6
2003-09-26 07:37:07 51°17.26 2°52.32 329 13.1 319 9.6
2003-09-26 07:37:11 51°17.27 2°52.31 329.5 13.1 319 9.7
2003-09-26 07:37:17 51°17.29 2°52.29 329.5 13.1 319 9.9
2003-09-26 07:37:21 51°17.3 2°52.27 329.2 13.1 318 9.8
2003-09-26 07:37:27 51°17.32 2°52.25 329.1 13.2 318 9.9
2003-09-26 07:37:31 51°17.33 2°52.23 328.9 13.2 318 9.7
2003-09-26 07:37:35 51°17.34 2°52.22 328.6 13.1 318 9.8
2003-09-26 07:37:41 51°17.35 2°52.19 328 13.1 317 9.9
2003-09-26 07:37:47 51°17.37 2°52.17 327.7 13.1 317 9.9
2003-09-26 07:37:51 51°17.38 2°52.15 327.7 13.1 317 10
2003-09-26 07:37:57 51°17.4 2°52.13 327.6 13.1 317 9.8
2003-09-26 07:38:01 51°17.41 2°52.11 328.2 13.1 318 9.9
2003-09-26 07:38:07 51°17.42 2°52.09 328.6 13.1 318 9.7
2003-09-26 07:38:11 51°17.43 2°52.07 328.9 13.1 319 10
2003-09-26 07:38:17 51°17.45 2°52.05 329.4 13.1 318 9.8
2003-09-26 07:38:21 51°17.46 2°52.04 329.4 13.1 319 10
2003-09-26 07:38:27 51°17.48 2°52.01 329.3 13.1 318 10
2003-09-26 07:38:31 51°17.49 2°52 329.2 13 318 9.9
2003-09-26 07:38:35 51°17.5 2°51.98 328.8 13.1 318 9.8
2003-09-26 07:38:41 51°17.52 2°51.96 328.4 13.1 317 9.9
2003-09-26 07:38:45 51°17.53 2°51.94 327.9 13.1 317 9.9
2003-09-26 07:38:51 51°17.54 2°51.92 327.4 13.1 317 10.1
2003-09-26 07:38:55 51°17.55 2°51.9 327.8 13.1 317 9.9
2003-09-26 07:39:01 51°17.57 2°51.88 328 13.1 318 9.7
2003-09-26 07:39:07 51°17.58 2°51.86 328.6 13 318 9.6
2003-09-26 07:39:11 51°17.6 2°51.84 328.9 13 318 9.8
2003-09-26 07:39:15 51°17.61 2°51.83 328.9 13 318 9.6
2003-09-26 07:39:21 51°17.62 2°51.8 328.9 13 318 9.5
2003-09-26 07:39:25 51°17.63 2°51.79 328.7 13 318 9.6
2003-09-26 07:39:31 51°17.65 2°51.76 328.1 13 317 9.6
2003-09-26 07:39:37 51°17.66 2°51.74 328 13 317 9.4
2003-09-26 07:39:41 51°17.67 2°51.73 328 13 317 9.7
2003-09-26 07:39:47 51°17.69 2°51.7 328 13 317 9.5
2003-09-26 07:39:51 51°17.7 2°51.69 328.1 13 318 9.7
2003-09-26 07:39:55 51°17.71 2°51.67 328.4 13 317 9.5
2003-09-26 07:40:01 51°17.73 2°51.65 328.5 13 318 9.4
2003-09-26 07:40:07 51°17.74 2°51.62 328.6 13 318 9.4
2003-09-26 07:40:11 51°17.75 2°51.61 329 13 318 9.2
2003-09-26 07:40:15 51°17.77 2°51.59 328.7 13.1 317 9.3
2003-09-26 07:40:21 51°17.78 2°51.57 328.6 13.1 318 9.4
2003-09-26 07:40:27 51°17.8 2°51.55 329.1 13 319 9.6
2003-09-26 07:40:31 51°17.81 2°51.53 330.7 13 321 9.4
2003-09-26 07:40:35 51°17.82 2°51.52 331.7 13 321 9.5
2003-09-26 07:40:41 51°17.84 2°51.5 332.8 13 322 9.7
2003-09-26 07:40:47 51°17.85 2°51.47 333.3 13 322 9.8
2003-09-26 07:40:51 51°17.87 2°51.46 333.9 13 323 9.9
2003-09-26 07:40:57 51°17.88 2°51.44 334.3 13 323 9.9
2003-09-26 07:41:01 51°17.9 2°51.43 334.6 13 323 10.1
2003-09-26 07:41:07 51°17.91 2°51.4 334.4 13.1 322 10
2003-09-26 07:41:11 51°17.92 2°51.39 334.1 13.1 322 9.9
2003-09-26 07:41:17 51°17.94 2°51.37 333.8 13.2 323 10.3
2003-09-26 07:41:21 51°17.95 2°51.35 334.5 13.1 323 10.5
2003-09-26 07:41:27 51°17.97 2°51.33 335.7 13.1 325 10.6
2003-09-26 07:41:31 51°17.98 2°51.32 336.2 13.2 325 10.6
2003-09-26 07:41:37 51°18 2°51.3 336.5 13.1 325 10.9
2003-09-26 07:41:41 51°18.01 2°51.29 336.8 13.1 325 10.9
2003-09-26 07:41:47 51°18.03 2°51.27 336.9 13.1 325 10.8
2003-09-26 07:41:51 51°18.04 2°51.25 337.1 13.1 325 11
2003-09-26 07:41:55 51°18.05 2°51.24 337.1 13.1 325 11.3
2003-09-26 07:42:01 51°18.07 2°51.22 337.2 13.1 325 11.4
2003-09-26 07:42:07 51°18.09 2°51.2 337.2 13.2 325 11.5
2003-09-26 07:42:11 51°18.1 2°51.19 337 13.2 325 11.4
2003-09-26 07:42:15 51°18.11 2°51.17 336.7 13.2 324 11.6
2003-09-26 07:42:21 51°18.13 2°51.15 335.7 13.2 324 11.8
2003-09-26 07:42:27 51°18.15 2°51.13 335.5 13.2 324 11.9
2003-09-26 07:42:31 51°18.16 2°51.12 336.4 12.9 325 11.9
2003-09-26 07:42:35 51°18.17 2°51.11 337.6 12.5 327 12.2
2003-09-26 07:42:41 51°18.19 2°51.09 340 12.2 328 12.3
2003-09-26 07:42:47 51°18.21 2°51.07 341.2 11.9 330 12.2
2003-09-26 07:42:51 51°18.22 2°51.06 342.2 11.7 329 12.4
2003-09-26 07:42:55 51°18.23 2°51.05 343.3 11.3 332 12.5
2003-09-26 07:43:01 51°18.25 2°51.04 343.5 11.1 330 12.6
2003-09-26 07:43:07 51°18.26 2°51.03 344 10.6 332 12.7
2003-09-26 07:43:11 51°18.27 2°51.02 344.8 10.4 332 13
2003-09-26 07:43:15 51°18.28 2°51.01 346.1 10 334 12.9
2003-09-26 07:43:21 51°18.3 2°51 347.7 9.9 335 12.9
2003-09-26 07:43:27 51°18.31 2°50.99 349.2 9.5 337 13.1
2003-09-26 07:43:31 51°18.32 2°50.98 351.5 9.4 338 13.1
2003-09-26 07:43:35 51°18.33 2°50.98 353 9.1 341 13.1
2003-09-26 07:43:41 51°18.34 2°50.97 355.1 8.8 342 13.1
2003-09-26 07:43:47 51°18.36 2°50.96 356.6 8.2 344 13.1
2003-09-26 07:43:51 51°18.37 2°50.96 358 7.9 345 13.2
2003-09-26 07:43:55 51°18.37 2°50.96 359.3 7.4 345 13.2
2003-09-26 07:44:01 51°18.38 2°50.95 0.7 6.8 347 13.2
2003-09-26 07:44:07 51°18.39 2°50.95 2.3 6.2 348 13.3
2003-09-26 07:44:11 51°18.4 2°50.95 3.9 5.9 349 13.3
2003-09-26 07:44:15 51°18.41 2°50.95 5.6 5.5 351 13.4
2003-09-26 07:44:21 51°18.42 2°50.94 7.9 5 354 13.4
2003-09-26 07:44:27 51°18.42 2°50.94 10.4 4.8 355 13.3
2003-09-26 07:44:31 51°18.43 2°50.94 13 4.5 358 13.3
2003-09-26 07:44:35 51°18.43 2°50.94 16.6 4.1 3 13.5
2003-09-26 07:44:41 51°18.44 2°50.94 20.2 3.9 7 13.3
2003-09-26 07:44:47 51°18.45 2°50.95 23.9 3.7 11 13.4
2003-09-26 07:44:51 51°18.45 2°50.95 27.6 3.4 16 13.3
2003-09-26 07:44:55 51°18.45 2°50.95 31.7 3.2 23 13.6
2003-09-26 07:45:01 51°18.46 2°50.95 36 3 28 13.5
2003-09-26 07:45:05 51°18.46 2°50.96 40.4 2.8 35 13.6
2003-09-26 07:45:11 51°18.46 2°50.96 45.7 2.8 39 13.5
2003-09-26 07:45:17 51°18.47 2°50.96 48.2 2.7 46 13.7
2003-09-26 07:45:21 51°18.47 2°50.97 50.8 2.6 48 13.6
2003-09-26 07:45:27 51°18.47 2°50.97 52.3 2.6 51 13.6
2003-09-26 07:45:31 51°18.47 2°50.98 53.6 2.6 51 13.3
2003-09-26 07:45:35 51°18.48 2°50.98 53.6 2.6 54 13.4
2003-09-26 07:45:41 51°18.48 2°50.99 53.2 2.6 51 13.6
2003-09-26 07:45:47 51°18.48 2°50.99 52.4 2.5 53 13.6
2003-09-26 07:45:51 51°18.48 2°50.99 51.3 2.4 50 13.5
2003-09-26 07:45:55 51°18.48 2°51 50.5 2.2 51 13.6
2003-09-26 07:46:01 51°18.49 2°51 49.7 2.1 49 13.4
2003-09-26 07:46:07 51°18.49 2°51.01 48.6 1.8 47 13.5
2003-09-26 07:46:11 51°18.49 2°51.01 47.4 1.6 45 13.5
2003-09-26 07:46:17 51°18.49 2°51.01 46.3 1.2 45 13.6
2003-09-26 07:46:21 51°18.49 2°51.01 45 0.9 40 13.5
2003-09-26 07:46:27 51°18.49 2°51.01 43.8 0.4 41 13.5
2003-09-26 07:46:31 51°18.49 2°51.01 42.4 0.2 19 13.5
2003-09-26 07:46:35 51°18.49 2°51.01 40.8 0.2 232 13.5
2003-09-26 07:46:41 51°18.49 2°51.01 38.7 0.3 231 13.4
2003-09-26 07:46:47 51°18.49 2°51.01 37.2 0.3 235 13.6
2003-09-26 07:46:51 51°18.49 2°51.01 34.8 0.4 241 13.4
2003-09-26 07:46:55 51°18.49 2°51.01 32.8 0.4 248 13.5
2003-09-26 07:47:01 51°18.49 2°51.01 30.7 0.5 252 13.6
2003-09-26 07:47:07 51°18.49 2°51.01 28.2 0.5 253 13.5
2003-09-26 07:47:11 51°18.49 2°51.01 26.4 0.5 251 13.7
2003-09-26 07:47:17 51°18.49 2°51 25 0.6 254 13.4
2003-09-26 07:47:21 51°18.49 2°51 23.9 0.6 249 13.6
2003-09-26 07:47:27 51°18.49 2°51 22.7 0.7 254 13.4
2003-09-26 07:47:31 51°18.49 2°51 22 0.6 246 13.6
2003-09-26 07:47:37 51°18.49 2°51 21 0.7 252 13.5
2003-09-26 07:47:41 51°18.49 2°51 20.4 0.7 247 13.6
2003-09-26 07:47:47 51°18.49 2°51 19.5 0.8 250 13.5
2003-09-26 07:47:51 51°18.49 2°50.99 18.9 0.7 250 13.6
2003-09-26 07:47:57 51°18.49 2°50.99 18 0.7 246 13.5
2003-09-26 07:48:01 51°18.49 2°50.99 17.4 0.8 248 13.6
2003-09-26 07:48:07 51°18.49 2°50.99 16.7 0.8 242 13.7
2003-09-26 07:48:11 51°18.49 2°50.99 16.3 0.9 245 13.5
2003-09-26 07:48:17 51°18.49 2°50.99 15.9 0.8 239 13.4
2003-09-26 07:48:21 51°18.49 2°50.98 15.7 0.9 243 13.6
2003-09-26 07:48:27 51°18.48 2°50.98 15.3 0.8 240 13.7
2003-09-26 07:48:31 51°18.48 2°50.98 15.1 0.9 241 13.5
2003-09-26 07:48:37 51°18.48 2°50.98 14.5 0.8 240 13.5
2003-09-26 07:48:41 51°18.48 2°50.98 13.9 0.9 240 13.6
2003-09-26 07:48:47 51°18.48 2°50.98 13.6 0.9 238 13.5
2003-09-26 07:48:51 51°18.48 2°50.98 13.1 0.9 240 13.7
2003-09-26 07:48:55 51°18.48 2°50.97 12.9 0.9 238 13.6
2003-09-26 07:49:01 51°18.48 2°50.97 12.8 0.9 237 13.7
2003-09-26 07:49:07 51°18.48 2°50.97 12.5 1 238 13.6
2003-09-26 07:49:11 51°18.48 2°50.97 12.4 1 238 13.7
2003-09-26 07:49:17 51°18.48 2°50.97 12.3 0.9 236 13.6
2003-09-26 07:49:21 51°18.48 2°50.96 12.2 1 237 13.7
2003-09-26 07:49:27 51°18.48 2°50.96 12.2 1 232 13.7
2003-09-26 07:49:31 51°18.48 2°50.96 12.2 1 233 13.6
2003-09-26 07:49:35 51°18.48 2°50.96 12.3 1 231 13.5
2003-09-26 07:49:41 51°18.47 2°50.96 12.5 1 233 13.7
2003-09-26 07:49:47 51°18.47 2°50.96 13 1 231 13.5
2003-09-26 07:49:51 51°18.47 2°50.95 13.2 1 231 13.6
2003-09-26 07:49:55 51°18.47 2°50.95 13.6 1 230 13.6
2003-09-26 07:50:01 51°18.47 2°50.95 13.8 1 231 13.7
2003-09-26 07:50:07 51°18.47 2°50.95 14.1 1 230 13.7
2003-09-26 07:50:11 51°18.47 2°50.95 14.1 1 229 13.5
2003-09-26 07:50:15 51°18.47 2°50.95 14.2 1.1 227 13.7
2003-09-26 07:50:21 51°18.47 2°50.94 14.3 1.1 229 13.6
2003-09-26 07:50:27 51°18.47 2°50.94 14.5 1.1 228 13.7
2003-09-26 07:50:31 51°18.46 2°50.94 14.5 1.1 230 13.5
2003-09-26 07:50:35 51°18.46 2°50.94 14.5 1.1 228 13.6
2003-09-26 07:50:41 51°18.46 2°50.94 14.6 1 227 13.4
2003-09-26 07:50:47 51°18.46 2°50.94 14.6 1.1 227 13.6
2003-09-26 07:50:51 51°18.46 2°50.93 14.5 1.1 228 13.5
2003-09-26 07:50:55 51°18.46 2°50.93 14.5 1 230 13.4
2003-09-26 07:51:01 51°18.46 2°50.93 14.5 0.8 243 13.7
2003-09-26 07:51:07 51°18.46 2°50.93 15.2 0.6 286 13.7
2003-09-26 07:51:11 51°18.46 2°50.93 16.8 0.8 316 13.4
2003-09-26 07:51:17 51°18.46 2°50.93 19.2 1 340 13.5
2003-09-26 07:51:21 51°18.46 2°50.93 21 1.5 354 13.8
2003-09-26 07:51:27 51°18.47 2°50.93 22 2 3 13.6
2003-09-26 07:51:31 51°18.47 2°50.93 23.1 2.6 7 13.5
2003-09-26 07:51:35 51°18.47 2°50.93 23.4 3.7 12 13.5
2003-09-26 07:51:41 51°18.48 2°50.93 24.5 4.4 13 13.7
2003-09-26 07:51:47 51°18.49 2°50.94 26.6 5.5 19 13.7
2003-09-26 07:51:51 51°18.5 2°50.94 29.4 6 20 13.6
2003-09-26 07:51:55 51°18.5 2°50.94 32 6.7 27 13.8
2003-09-26 07:52:01 51°18.51 2°50.95 34.1 7.2 27 13.6
2003-09-26 07:52:07 51°18.52 2°50.96 36.6 7.8 31 13.6
2003-09-26 07:52:11 51°18.53 2°50.97 38.5 8.1 32 13.8
2003-09-26 07:52:15 51°18.54 2°50.98 39.8 8.5 35 13.6
2003-09-26 07:52:21 51°18.55 2°50.99 41.3 8.9 35 13.7
2003-09-26 07:52:27 51°18.56 2°51.01 42.6 9.3 37 13.7
2003-09-26 07:52:31 51°18.57 2°51.02 43.4 9.6 38 13.5
2003-09-26 07:52:35 51°18.58 2°51.03 43.5 10 38 13.7
2003-09-26 07:52:41 51°18.59 2°51.05 44.2 10.2 39 13.7
2003-09-26 07:52:47 51°18.61 2°51.06 44.7 10.7 39 13.5
2003-09-26 07:52:51 51°18.62 2°51.08 44.5 10.9 39 13.9
2003-09-26 07:52:57 51°18.63 2°51.09 44.2 11.1 38 13.7
2003-09-26 07:53:01 51°18.64 2°51.11 43.5 11.3 39 13.8
2003-09-26 07:53:07 51°18.66 2°51.13 45 11.4 41 13.8
2003-09-26 07:53:11 51°18.66 2°51.14 49.3 11.4 47 13.9
2003-09-26 07:53:15 51°18.67 2°51.16 53.8 11.5 53 13.9
2003-09-26 07:53:21 51°18.68 2°51.18 57.8 11.5 56 13.9
2003-09-26 07:53:27 51°18.69 2°51.21 60.2 11.6 58 13.8
2003-09-26 07:53:31 51°18.7 2°51.23 63.1 11.6 63 13.8
2003-09-26 07:53:37 51°18.71 2°51.25 64.4 11.7 62 13.9
2003-09-26 07:53:41 51°18.71 2°51.27 66 11.7 65 13.8
2003-09-26 07:53:47 51°18.72 2°51.3 67 11.7 64 13.8
2003-09-26 07:53:51 51°18.73 2°51.32 66.6 11.8 65 13.9
2003-09-26 07:53:57 51°18.74 2°51.35 67.1 11.8 65 13.9
2003-09-26 07:54:01 51°18.74 2°51.37 67.1 11.8 65 13.7
2003-09-26 07:54:07 51°18.75 2°51.39 66.2 11.8 63 13.7
2003-09-26 07:54:11 51°18.76 2°51.41 66.1 11.8 64 13.8
2003-09-26 07:54:15 51°18.76 2°51.43 65.8 11.9 63 13.9
2003-09-26 07:54:21 51°18.77 2°51.46 65.4 11.9 63 13.8
2003-09-26 07:54:27 51°18.78 2°51.49 65.1 11.9 62 13.8
2003-09-26 07:54:31 51°18.79 2°51.51 65.1 11.8 62 13.8
2003-09-26 07:54:35 51°18.79 2°51.52 64.9 11.8 63 13.9
2003-09-26 07:54:41 51°18.8 2°51.55 64.5 11.8 61 13.9
2003-09-26 07:54:47 51°18.81 2°51.58 64.6 11.9 62 13.8
2003-09-26 07:54:51 51°18.82 2°51.6 64.5 11.9 61 13.8
2003-09-26 07:54:55 51°18.82 2°51.62 64.3 11.9 62 13.8
2003-09-26 07:55:01 51°18.83 2°51.64 64 11.9 61 13.8
2003-09-26 07:55:07 51°18.84 2°51.67 64.5 11.9 62 13.7
2003-09-26 07:55:11 51°18.85 2°51.69 64.8 11.9 62 13.7
2003-09-26 07:55:17 51°18.86 2°51.72 64.7 11.9 62 13.7
2003-09-26 07:55:21 51°18.87 2°51.74 64.2 11.9 61 13.7
2003-09-26 07:55:27 51°18.88 2°51.76 63.8 11.9 61 13.6
2003-09-26 07:55:31 51°18.88 2°51.78 63.6 11.8 61 13.7
2003-09-26 07:55:35 51°18.89 2°51.8 63.7 11.9 61 13.6
2003-09-26 07:55:41 51°18.9 2°51.83 63.6 11.9 60 13.6
2003-09-26 07:55:47 51°18.91 2°51.86 63 11.9 60 13.6
2003-09-26 07:55:51 51°18.91 2°51.87 62.7 11.9 60 13.6
2003-09-26 07:55:55 51°18.92 2°51.89 63 11.9 60 13.6
2003-09-26 07:56:01 51°18.93 2°51.92 63.1 11.9 61 13.7
2003-09-26 07:56:07 51°18.94 2°51.95 63.6 11.8 60 13.7
2003-09-26 07:56:11 51°18.95 2°51.97 63.7 11.9 61 13.6
2003-09-26 07:56:15 51°18.95 2°51.99 64.5 11.9 61 13.6
2003-09-26 07:56:21 51°18.96 2°52.01 64.1 11.9 61 13.6
2003-09-26 07:56:27 51°18.97 2°52.04 63.8 11.9 60 13.6
2003-09-26 07:56:31 51°18.98 2°52.06 62.9 11.9 60 13.5
2003-09-26 07:56:35 51°18.99 2°52.08 62.6 11.9 60 13.5
2003-09-26 07:56:41 51°19 2°52.1 62.3 11.9 59 13.4
2003-09-26 07:56:47 51°19.01 2°52.13 62.6 11.9 60 13.5
2003-09-26 07:56:51 51°19.01 2°52.15 62.6 11.9 59 13.4
2003-09-26 07:56:55 51°19.02 2°52.17 62.4 11.8 60 13.5
2003-09-26 07:57:01 51°19.03 2°52.19 62.2 11.8 59 13.5
2003-09-26 07:57:07 51°19.04 2°52.22 62.6 11.9 60 13.5
2003-09-26 07:57:11 51°19.05 2°52.24 63.1 11.9 60 13.4
2003-09-26 07:57:15 51°19.05 2°52.26 63 11.9 61 13.5
2003-09-26 07:57:21 51°19.06 2°52.29 63.2 11.9 60 13.4
2003-09-26 07:57:27 51°19.07 2°52.31 63.1 11.9 61 13.4
2003-09-26 07:57:31 51°19.08 2°52.33 63.4 11.8 60 13.4
2003-09-26 07:57:37 51°19.09 2°52.36 63 11.8 60 13.5
2003-09-26 07:57:41 51°19.1 2°52.38 62.4 11.8 59 13.4
2003-09-26 07:57:47 51°19.11 2°52.4 62.4 11.8 60 13.3
2003-09-26 07:57:51 51°19.11 2°52.42 62.8 11.8 60 13.4
2003-09-26 07:57:55 51°19.12 2°52.44 62.9 11.8 61 13.4
2003-09-26 07:58:01 51°19.13 2°52.47 63.5 11.8 62 13.3
2003-09-26 07:58:07 51°19.14 2°52.5 65.3 11.9 64 13.3
2003-09-26 07:58:11 51°19.14 2°52.51 67.3 11.8 65 13.4
2003-09-26 07:58:15 51°19.15 2°52.53 69 11.8 68 13.3
2003-09-26 07:58:21 51°19.15 2°52.56 70.3 11.8 68 13.2
2003-09-26 07:58:27 51°19.16 2°52.59 71 11.8 69 13.3
2003-09-26 07:58:31 51°19.17 2°52.61 71.1 11.8 69 13.2
2003-09-26 07:58:37 51°19.17 2°52.64 71.8 11.7 70 13.1
2003-09-26 07:58:41 51°19.18 2°52.66 72.3 11.8 71 13.1
2003-09-26 07:58:47 51°19.18 2°52.69 72.8 11.8 71 13.1
2003-09-26 07:58:51 51°19.19 2°52.71 72.8 11.9 71 13.1
2003-09-26 07:58:57 51°19.19 2°52.74 72.5 11.8 71 13.1
2003-09-26 07:59:01 51°19.2 2°52.76 72.1 11.8 70 13.1
2003-09-26 07:59:07 51°19.2 2°52.79 71.7 11.7 70 13.1
2003-09-26 07:59:11 51°19.21 2°52.81 70.6 11.7 68 13
2003-09-26 07:59:15 51°19.21 2°52.83 69.9 11.7 69 13
2003-09-26 07:59:21 51°19.22 2°52.85 69.4 11.7 67 13
2003-09-26 07:59:27 51°19.23 2°52.88 69.2 11.7 69 12.9
2003-09-26 07:59:31 51°19.23 2°52.9 70 11.7 69 13
2003-09-26 07:59:35 51°19.24 2°52.92 70.7 11.8 70 12.9
2003-09-26 07:59:41 51°19.24 2°52.95 70.8 11.7 69 12.8
2003-09-26 07:59:47 51°19.25 2°52.98 70.8 11.7 70 12.6
2003-09-26 07:59:51 51°19.26 2°53 71.1 11.7 70 12.8
2003-09-26 07:59:55 51°19.26 2°53.02 71.6 11.8 71 12.7
2003-09-26 08:00:01 51°19.27 2°53.05 72.1 11.8 71 12.7
2003-09-26 08:00:07 51°19.27 2°53.08 72.2 11.8 70 12.7
2003-09-26 08:00:11 51°19.28 2°53.1 72 11.8 71 12.6
2003-09-26 08:00:15 51°19.28 2°53.12 71.8 11.8 70 12.6
2003-09-26 08:00:21 51°19.29 2°53.15 71.2 11.8 69 12.5
2003-09-26 08:00:27 51°19.29 2°53.18 70.9 11.8 69 12.5
2003-09-26 08:00:31 51°19.3 2°53.2 70.8 11.8 70 12.6
2003-09-26 08:00:35 51°19.3 2°53.22 70.4 11.8 69 12.6
2003-09-26 08:00:41 51°19.31 2°53.25 70.6 11.8 69 12.4
2003-09-26 08:00:47 51°19.32 2°53.27 70.9 11.8 70 12.4
2003-09-26 08:00:51 51°19.32 2°53.29 71.2 11.7 70 12.4
2003-09-26 08:00:55 51°19.33 2°53.31 70.9 11.8 69 12.4
2003-09-26 08:01:01 51°19.33 2°53.34 70.6 11.8 69 12.5
2003-09-26 08:01:07 51°19.34 2°53.37 70.4 11.7 68 12.4
2003-09-26 08:01:11 51°19.35 2°53.39 69.9 11.8 68 12.4
2003-09-26 08:01:15 51°19.35 2°53.41 70.3 11.8 69 12.4
2003-09-26 08:01:21 51°19.36 2°53.44 70 11.7 68 12.4
2003-09-26 08:01:27 51°19.36 2°53.47 69.8 11.8 68 12.3
2003-09-26 08:01:31 51°19.37 2°53.49 69.6 11.7 67 12.4
2003-09-26 08:01:35 51°19.38 2°53.51 69.6 11.7 68 12.3
2003-09-26 08:01:41 51°19.38 2°53.54 69.8 11.7 68 12.2
2003-09-26 08:01:47 51°19.39 2°53.57 70.1 11.8 69 12.2
2003-09-26 08:01:51 51°19.39 2°53.59 70.4 11.8 69 12.1
2003-09-26 08:01:57 51°19.4 2°53.61 71 11.8 69 12.2
2003-09-26 08:02:01 51°19.41 2°53.63 70.9 11.8 69 12.2
2003-09-26 08:02:07 51°19.41 2°53.66 70.8 11.8 69 12.2
2003-09-26 08:02:11 51°19.42 2°53.68 70.7 11.8 68 12.1
2003-09-26 08:02:17 51°19.42 2°53.71 70.4 11.8 69 12.1
2003-09-26 08:02:21 51°19.43 2°53.73 70.4 11.8 69 12.2
2003-09-26 08:02:27 51°19.44 2°53.76 71.1 11.7 70 12.2
2003-09-26 08:02:31 51°19.44 2°53.78 71.1 11.7 70 12.2
2003-09-26 08:02:37 51°19.45 2°53.81 71.4 11.8 70 12.2
2003-09-26 08:02:41 51°19.45 2°53.83 71.3 11.8 69 12.1
2003-09-26 08:02:47 51°19.46 2°53.86 71.5 11.8 70 12.1
2003-09-26 08:02:51 51°19.46 2°53.88 71.8 11.8 70 12.1
2003-09-26 08:02:57 51°19.47 2°53.91 71.8 11.7 70 12.1
2003-09-26 08:03:01 51°19.47 2°53.93 71.8 11.8 70 12.1
2003-09-26 08:03:07 51°19.48 2°53.96 71.4 11.8 69 12.2
2003-09-26 08:03:11 51°19.48 2°53.97 70.4 11.7 68 12.1
2003-09-26 08:03:15 51°19.49 2°53.99 70.6 11.7 69 12
2003-09-26 08:03:21 51°19.5 2°54.02 70.2 11.8 68 12.2
2003-09-26 08:03:27 51°19.5 2°54.05 69.8 11.8 68 12.1
2003-09-26 08:03:31 51°19.51 2°54.07 70 11.7 69 12.1
2003-09-26 08:03:35 51°19.51 2°54.09 70.1 11.7 68 12.2
2003-09-26 08:03:41 51°19.52 2°54.12 70.5 11.8 69 12
2003-09-26 08:03:47 51°19.53 2°54.15 70.7 11.7 68 12.1
2003-09-26 08:03:51 51°19.53 2°54.17 70.3 11.7 68 12.1
2003-09-26 08:03:57 51°19.54 2°54.2 70.2 11.7 68 12.1
2003-09-26 08:04:01 51°19.54 2°54.22 70 11.7 67 12.1
2003-09-26 08:04:07 51°19.55 2°54.24 70 11.7 69 12.2
2003-09-26 08:04:11 51°19.56 2°54.26 70.4 11.8 69 12.1
2003-09-26 08:04:15 51°19.56 2°54.28 70.4 11.8 68 12.1
2003-09-26 08:04:21 51°19.57 2°54.31 70.1 11.8 68 12.1
2003-09-26 08:04:27 51°19.58 2°54.34 69.7 11.7 68 12
2003-09-26 08:04:31 51°19.58 2°54.36 69.9 11.8 69 12.2
2003-09-26 08:04:35 51°19.59 2°54.38 69.7 11.8 68 12.2
2003-09-26 08:04:41 51°19.59 2°54.41 70.1 11.9 69 12.2
2003-09-26 08:04:47 51°19.6 2°54.44 70.4 11.8 69 12.3
2003-09-26 08:04:51 51°19.6 2°54.46 71 11.8 70 12.2
2003-09-26 08:04:57 51°19.61 2°54.49 71.2 11.8 69 12.2
2003-09-26 08:05:01 51°19.62 2°54.51 70.8 11.8 69 12.2
2003-09-26 08:05:07 51°19.62 2°54.54 71.2 11.8 69 12.2
2003-09-26 08:05:11 51°19.63 2°54.56 71.6 11.9 70 12.3
2003-09-26 08:05:15 51°19.63 2°54.58 71.4 11.9 69 12.1
2003-09-26 08:05:21 51°19.64 2°54.61 71.2 11.9 69 12.1
2003-09-26 08:05:27 51°19.65 2°54.63 71.1 11.9 69 12.1
2003-09-26 08:05:31 51°19.65 2°54.65 70.5 11.9 68 12.1
2003-09-26 08:05:37 51°19.66 2°54.68 70.4 11.9 68 12.2
2003-09-26 08:05:41 51°19.66 2°54.7 69.9 11.9 68 12.2
2003-09-26 08:05:47 51°19.67 2°54.73 69.7 11.9 68 12.2
2003-09-26 08:05:51 51°19.68 2°54.75 69.6 11.9 67 12.1
2003-09-26 08:05:55 51°19.68 2°54.77 69.1 11.9 68 12.2
2003-09-26 08:06:01 51°19.69 2°54.8 68.9 11.9 66 12.3
2003-09-26 08:06:07 51°19.7 2°54.83 68.9 11.9 68 12.3
2003-09-26 08:06:11 51°19.7 2°54.85 69.5 11.9 68 12.2
2003-09-26 08:06:17 51°19.71 2°54.88 71.4 11.9 72 12.3
2003-09-26 08:06:21 51°19.71 2°54.9 73 11.9 73 12.2
2003-09-26 08:06:27 51°19.72 2°54.93 74.5 11.9 74 12.1
2003-09-26 08:06:31 51°19.72 2°54.95 75.2 11.9 75 12.4
2003-09-26 08:06:35 51°19.72 2°54.97 75.8 11.9 76 12.3
2003-09-26 08:06:41 51°19.73 2°55 76.4 11.9 75 12.1
2003-09-26 08:06:47 51°19.73 2°55.03 76.2 11.9 75 12.1
2003-09-26 08:06:51 51°19.74 2°55.05 76.4 11.9 76 12.1
2003-09-26 08:06:55 51°19.74 2°55.07 76.3 11.9 75 12.1
2003-09-26 08:07:01 51°19.74 2°55.1 76.4 11.9 76 12.2
2003-09-26 08:07:07 51°19.75 2°55.13 76.3 11.8 76 12.2
2003-09-26 08:07:11 51°19.75 2°55.15 76.6 11.9 76 12.2
2003-09-26 08:07:17 51°19.76 2°55.19 76.6 11.8 75 12.1
2003-09-26 08:07:21 51°19.76 2°55.21 76.7 11.8 76 12.1
2003-09-26 08:07:27 51°19.77 2°55.24 76.8 11.8 76 12.2
2003-09-26 08:07:31 51°19.77 2°55.26 76.4 11.8 75 12.2
2003-09-26 08:07:37 51°19.77 2°55.29 76.1 11.9 75 12.1
2003-09-26 08:07:41 51°19.78 2°55.31 76 11.9 75 12.1
2003-09-26 08:07:47 51°19.78 2°55.34 75.3 11.8 75 12
2003-09-26 08:07:51 51°19.79 2°55.36 75.3 11.9 75 12.1
2003-09-26 08:07:57 51°19.79 2°55.39 75.4 11.9 74 12.1
2003-09-26 08:08:01 51°19.8 2°55.41 74.9 11.9 73 12
2003-09-26 08:08:07 51°19.8 2°55.44 74.7 11.9 74 11.9
2003-09-26 08:08:11 51°19.8 2°55.46 74.7 11.9 73 12.1
2003-09-26 08:08:15 51°19.81 2°55.48 75 11.9 75 12.1
2003-09-26 08:08:21 51°19.81 2°55.51 75.8 11.9 74 12
2003-09-26 08:08:27 51°19.82 2°55.54 76 11.9 76 12
2003-09-26 08:08:31 51°19.82 2°55.56 75.7 11.9 74 12
2003-09-26 08:08:37 51°19.83 2°55.59 75.8 11.9 75 12
2003-09-26 08:08:41 51°19.83 2°55.61 75.6 11.9 74 12
2003-09-26 08:08:47 51°19.84 2°55.64 75.3 11.8 74 12
2003-09-26 08:08:51 51°19.84 2°55.66 75.1 11.9 73 11.8
2003-09-26 08:08:55 51°19.84 2°55.68 74.5 11.8 72 11.9
2003-09-26 08:09:01 51°19.85 2°55.71 74.4 11.8 74 12
2003-09-26 08:09:07 51°19.85 2°55.74 74.7 11.8 73 11.9
2003-09-26 08:09:11 51°19.86 2°55.76 74.8 11.8 74 11.9
2003-09-26 08:09:17 51°19.86 2°55.79 75.6 11.8 75 12
2003-09-26 08:09:21 51°19.87 2°55.81 76.1 11.8 75 11.9
2003-09-26 08:09:27 51°19.87 2°55.84 76.3 11.8 74 11.9
2003-09-26 08:09:31 51°19.88 2°55.86 76.1 11.9 75 12
2003-09-26 08:09:35 51°19.88 2°55.88 75.4 11.9 74 11.8
2003-09-26 08:09:41 51°19.88 2°55.91 75.4 11.8 75 11.9
2003-09-26 08:09:47 51°19.89 2°55.94 75.4 11.8 73 12
2003-09-26 08:09:51 51°19.89 2°55.96 75.1 11.9 74 11.9
2003-09-26 08:09:55 51°19.9 2°55.98 75 11.8 73 11.9
2003-09-26 08:10:01 51°19.9 2°56.01 74.7 11.8 73 11.9
2003-09-26 08:10:07 51°19.91 2°56.04 74.5 11.9 74 11.9
2003-09-26 08:10:11 51°19.91 2°56.06 75.1 11.9 73 11.9
2003-09-26 08:10:15 51°19.92 2°56.08 75.4 11.9 75 11.8
2003-09-26 08:10:21 51°19.92 2°56.12 75.8 11.9 74 11.8
2003-09-26 08:10:27 51°19.93 2°56.15 75.8 11.9 74 11.9
2003-09-26 08:10:31 51°19.93 2°56.17 75.5 11.9 73 11.8
2003-09-26 08:10:35 51°19.93 2°56.19 75.2 11.9 74 11.8
2003-09-26 08:10:41 51°19.94 2°56.22 75 11.9 73 11.8
2003-09-26 08:10:47 51°19.94 2°56.25 75.4 11.9 75 11.7
2003-09-26 08:10:51 51°19.95 2°56.27 75.4 12 74 11.7
2003-09-26 08:10:57 51°19.95 2°56.3 75.4 11.9 74 11.7
2003-09-26 08:11:01 51°19.96 2°56.32 75.4 11.9 74 11.7
2003-09-26 08:11:07 51°19.96 2°56.35 75 11.9 73 11.8
2003-09-26 08:11:11 51°19.97 2°56.37 74.6 12 73 11.7
2003-09-26 08:11:15 51°19.97 2°56.39 74.3 12 73 11.8
2003-09-26 08:11:21 51°19.98 2°56.42 74.5 11.9 73 11.6
2003-09-26 08:11:27 51°19.98 2°56.45 75.2 11.8 75 11.8
2003-09-26 08:11:31 51°19.98 2°56.47 75.8 11.9 76 11.7
2003-09-26 08:11:35 51°19.99 2°56.49 76.7 11.8 75 11.7
2003-09-26 08:11:41 51°19.99 2°56.52 76.3 11.8 75 11.7
2003-09-26 08:11:47 51°20 2°56.55 76.2 11.8 74 11.6
2003-09-26 08:11:51 51°20 2°56.57 76.1 11.8 76 11.6
2003-09-26 08:11:55 51°20 2°56.59 76.5 11.9 76 11.7
2003-09-26 08:12:01 51°20.01 2°56.62 76.5 11.8 74 11.7
2003-09-26 08:12:07 51°20.01 2°56.65 76.7 11.9 76 11.6
2003-09-26 08:12:11 51°20.02 2°56.67 76.2 11.9 74 11.6
2003-09-26 08:12:15 51°20.02 2°56.69 75.7 11.9 74 11.6
2003-09-26 08:12:21 51°20.03 2°56.72 75.2 11.9 72 11.5
2003-09-26 08:12:27 51°20.03 2°56.75 74.8 12 74 11.6
2003-09-26 08:12:31 51°20.04 2°56.77 75 12 73 11.5
2003-09-26 08:12:35 51°20.04 2°56.8 75.1 12 73 11.5
2003-09-26 08:12:41 51°20.05 2°56.83 75.1 12 73 11.5
2003-09-26 08:12:47 51°20.05 2°56.86 75.5 12 74 11.5
2003-09-26 08:12:51 51°20.06 2°56.88 75.7 12 73 11.5
2003-09-26 08:12:55 51°20.06 2°56.9 75.6 12 74 11.5
2003-09-26 08:13:01 51°20.07 2°56.93 75.4 12 73 11.5
2003-09-26 08:13:07 51°20.07 2°56.96 75.8 12.1 74 11.5
2003-09-26 08:13:11 51°20.08 2°56.98 75.4 12 72 11.5
2003-09-26 08:13:15 51°20.08 2°57 74.7 12 72 11.5
2003-09-26 08:13:21 51°20.09 2°57.03 74.1 12 71 11.4
2003-09-26 08:13:27 51°20.09 2°57.06 74.2 12.1 72 11.4
2003-09-26 08:13:31 51°20.1 2°57.08 74.6 12.1 71 11.5
2003-09-26 08:13:35 51°20.1 2°57.1 74.3 12.1 72 11.4
2003-09-26 08:13:41 51°20.11 2°57.13 74.7 12.1 73 11.5
2003-09-26 08:13:47 51°20.11 2°57.16 73.7 12 71 11.4
2003-09-26 08:13:51 51°20.12 2°57.18 73.9 12.1 72 11.4
2003-09-26 08:13:55 51°20.12 2°57.2 74 12.2 72 11.4
2003-09-26 08:14:01 51°20.13 2°57.23 74.7 12.1 73 11.3
2003-09-26 08:14:07 51°20.13 2°57.26 75.1 12.1 72 11.2
2003-09-26 08:14:11 51°20.14 2°57.28 75.2 12.1 74 11.3
2003-09-26 08:14:15 51°20.14 2°57.3 75.8 12.1 73 11.4
2003-09-26 08:14:21 51°20.15 2°57.34 75.8 12.1 74 11.3
2003-09-26 08:14:27 51°20.15 2°57.37 75.8 12.1 73 11.3
2003-09-26 08:14:31 51°20.15 2°57.39 75.4 12 74 11.2
2003-09-26 08:14:37 51°20.16 2°57.42 75.3 12 73 11.2
2003-09-26 08:14:41 51°20.16 2°57.44 75.4 12 74 11.2
2003-09-26 08:14:47 51°20.17 2°57.47 75.7 12 74 11.3
2003-09-26 08:14:51 51°20.17 2°57.49 75.6 12 74 11.3
2003-09-26 08:14:55 51°20.18 2°57.51 75.6 12 74 11.3
2003-09-26 08:15:01 51°20.18 2°57.54 75.4 12 73 11.3
2003-09-26 08:15:07 51°20.19 2°57.57 74.9 12 73 11.3
2003-09-26 08:15:11 51°20.19 2°57.59 74.6 12 72 11.2
2003-09-26 08:15:15 51°20.2 2°57.61 74.7 12 74 11.2
2003-09-26 08:15:21 51°20.2 2°57.64 74.8 12 73 11.2
2003-09-26 08:15:27 51°20.21 2°57.67 75.1 11.9 75 11.2
2003-09-26 08:15:31 51°20.21 2°57.69 75.6 11.9 74 11.2
2003-09-26 08:15:37 51°20.22 2°57.72 75.6 11.9 76 11.2
2003-09-26 08:15:41 51°20.22 2°57.74 76.3 12 76 11.3
2003-09-26 08:15:47 51°20.22 2°57.77 76.7 12 76 11.2
2003-09-26 08:15:51 51°20.23 2°57.8 77.2 11.9 76 11.2
2003-09-26 08:15:57 51°20.23 2°57.83 77 12 76 11.2
2003-09-26 08:16:01 51°20.24 2°57.85 77 12 76 11.2
2003-09-26 08:16:07 51°20.24 2°57.88 76.7 12 75 11.2
2003-09-26 08:16:11 51°20.24 2°57.9 76.4 12 75 11.2
2003-09-26 08:16:15 51°20.25 2°57.92 75.9 12 74 11.1
2003-09-26 08:16:21 51°20.25 2°57.95 75.4 11.9 73 11.1
2003-09-26 08:16:27 51°20.26 2°57.98 74.8 12 72 11.1
2003-09-26 08:16:31 51°20.26 2°58 74 12 72 11.1
2003-09-26 08:16:35 51°20.27 2°58.02 74 11.9 73 11.1
2003-09-26 08:16:41 51°20.27 2°58.05 74.3 11.9 73 11.1
2003-09-26 08:16:47 51°20.28 2°58.08 74.4 11.9 74 11.1
2003-09-26 08:16:51 51°20.28 2°58.1 75 11.9 74 11.2
2003-09-26 08:16:55 51°20.29 2°58.12 75.9 11.9 75 11.2
2003-09-26 08:17:01 51°20.29 2°58.15 75.7 11.9 74 11.1
2003-09-26 08:17:07 51°20.3 2°58.18 75.6 11.9 75 11.1
2003-09-26 08:17:11 51°20.3 2°58.2 75.7 11.9 74 11.1
2003-09-26 08:17:17 51°20.31 2°58.23 75.8 12 75 11.1
2003-09-26 08:17:21 51°20.31 2°58.25 75.9 12 74 11.2
2003-09-26 08:17:27 51°20.31 2°58.28 75.9 11.9 75 11.1
2003-09-26 08:17:31 51°20.32 2°58.3 75.3 11.9 74 11
2003-09-26 08:17:37 51°20.32 2°58.33 74.9 12 73 11.1
2003-09-26 08:17:41 51°20.33 2°58.35 74.6 12 73 11
2003-09-26 08:17:47 51°20.33 2°58.39 74.4 12 73 11
2003-09-26 08:17:51 51°20.34 2°58.41 74.5 12 74 10.9
2003-09-26 08:17:55 51°20.34 2°58.43 74.6 12 73 11.1
2003-09-26 08:18:01 51°20.35 2°58.46 74.6 12 73 11
2003-09-26 08:18:07 51°20.35 2°58.49 74.1 12 73 11
2003-09-26 08:18:11 51°20.36 2°58.51 74.2 12 73 10.9
2003-09-26 08:18:17 51°20.36 2°58.54 74.4 12 73 11
2003-09-26 08:18:21 51°20.37 2°58.56 74.3 12 73 10.9
2003-09-26 08:18:27 51°20.37 2°58.59 74.3 12 74 10.9
2003-09-26 08:18:31 51°20.38 2°58.61 74.6 12.1 73 10.9
2003-09-26 08:18:35 51°20.38 2°58.63 74.6 11.9 74 10.9
2003-09-26 08:18:41 51°20.39 2°58.66 74.8 11.9 74 11
2003-09-26 08:18:47 51°20.39 2°58.69 75.1 12 74 10.9
2003-09-26 08:18:51 51°20.39 2°58.71 75 12 73 10.8
2003-09-26 08:18:57 51°20.4 2°58.74 74.9 12 74 10.8
2003-09-26 08:19:01 51°20.4 2°58.76 75.4 12 74 10.9
2003-09-26 08:19:07 51°20.41 2°58.79 75.4 12 74 10.8
2003-09-26 08:19:11 51°20.41 2°58.81 75.9 12.1 75 10.7
2003-09-26 08:19:15 51°20.42 2°58.83 76.1 12.1 75 10.7
2003-09-26 08:19:21 51°20.42 2°58.86 76 12 74 10.7
2003-09-26 08:19:27 51°20.43 2°58.89 75.7 12 74 10.7
2003-09-26 08:19:31 51°20.43 2°58.91 75.5 12 74 10.7
2003-09-26 08:19:37 51°20.44 2°58.95 75.4 12.1 73 10.7
2003-09-26 08:19:41 51°20.44 2°58.97 75.2 12.1 73 10.7
2003-09-26 08:19:47 51°20.45 2°59 75.7 12 75 10.8
2003-09-26 08:19:51 51°20.45 2°59.02 75.8 12 74 10.7
2003-09-26 08:19:57 51°20.45 2°59.05 75.8 12 74 10.7
2003-09-26 08:20:01 51°20.46 2°59.07 75.4 12 74 10.7
2003-09-26 08:20:07 51°20.46 2°59.1 74.9 12 72 10.6
2003-09-26 08:20:11 51°20.47 2°59.12 74.8 12 73 10.8
2003-09-26 08:20:15 51°20.47 2°59.14 74.5 12 72 10.7
2003-09-26 08:20:21 51°20.48 2°59.17 74.4 12 73 10.6
2003-09-26 08:20:27 51°20.48 2°59.2 75 12.1 74 10.7
2003-09-26 08:20:31 51°20.49 2°59.22 75.1 12.1 73 10.7
2003-09-26 08:20:37 51°20.49 2°59.25 75.8 12 75 10.6
2003-09-26 08:20:41 51°20.5 2°59.27 76.3 12 74 10.8
2003-09-26 08:20:47 51°20.5 2°59.3 76.3 11.9 75 10.6
2003-09-26 08:20:51 51°20.51 2°59.32 76.5 11.9 75 10.6
2003-09-26 08:20:55 51°20.51 2°59.34 76.7 12 76 10.7
2003-09-26 08:21:01 51°20.51 2°59.37 76.7 12 74 10.6
2003-09-26 08:21:07 51°20.52 2°59.41 77.1 12 76 10.7
2003-09-26 08:21:11 51°20.52 2°59.43 75.9 12 73 10.5
2003-09-26 08:21:15 51°20.53 2°59.45 75.1 12 74 10.6
2003-09-26 08:21:21 51°20.53 2°59.48 74.6 12 72 10.5
2003-09-26 08:21:27 51°20.54 2°59.51 73.8 12.1 72 10.6
2003-09-26 08:21:31 51°20.54 2°59.53 73.8 12.1 72 10.5
2003-09-26 08:21:35 51°20.55 2°59.55 73.9 12.1 72 10.7
2003-09-26 08:21:41 51°20.55 2°59.58 74.7 12.1 74 10.6
2003-09-26 08:21:47 51°20.56 2°59.61 75.2 12.1 74 10.5
2003-09-26 08:21:51 51°20.56 2°59.63 75.7 12.1 74 10.6
2003-09-26 08:21:57 51°20.57 2°59.66 76 12.1 75 10.5
2003-09-26 08:22:01 51°20.57 2°59.68 76.4 12 75 10.6
2003-09-26 08:22:07 51°20.58 2°59.71 76.5 12.1 75 10.5
2003-09-26 08:22:11 51°20.58 2°59.73 76.5 12.1 74 10.5
2003-09-26 08:22:15 51°20.58 2°59.75 75.6 12 74 10.5
2003-09-26 08:22:21 51°20.59 2°59.78 74.9 12 73 10.5
2003-09-26 08:22:27 51°20.6 2°59.81 75 12.1 73 10.5
2003-09-26 08:22:31 51°20.6 2°59.84 74.7 12.2 72 10.5
2003-09-26 08:22:37 51°20.61 2°59.87 74.1 12 72 10.5
2003-09-26 08:22:41 51°20.61 2°59.89 74.1 12 72 10.4
2003-09-26 08:22:47 51°20.62 2°59.92 74.5 12.1 73 10.4
2003-09-26 08:22:51 51°20.62 2°59.94 75.4 12.2 74 10.5
2003-09-26 08:22:57 51°20.62 2°59.97 75.4 12.2 74 10.4
2003-09-26 08:23:01 51°20.63 2°59.99 75.9 12.1 74 10.5
2003-09-26 08:23:07 51°20.63 3°0.02 75.9 12.2 75 10.6
2003-09-26 08:23:11 51°20.64 3°0.04 75.9 12.2 74 10.5
2003-09-26 08:23:17 51°20.64 3°0.07 76.3 12.1 75 10.5
2003-09-26 08:23:21 51°20.65 3°0.09 76.3 12.1 75 10.6
2003-09-26 08:23:27 51°20.65 3°0.12 75.9 12 75 10.6
2003-09-26 08:23:31 51°20.65 3°0.14 76.1 12.1 75 10.5
2003-09-26 08:23:37 51°20.66 3°0.18 75.4 12.2 73 10.5
2003-09-26 08:23:41 51°20.66 3°0.2 74.9 12.1 73 10.5
2003-09-26 08:23:47 51°20.67 3°0.23 75.1 12.1 73 10.4
2003-09-26 08:23:51 51°20.67 3°0.25 74.6 12.1 73 10.4
2003-09-26 08:23:55 51°20.68 3°0.27 74 12.1 73 10.4
2003-09-26 08:24:01 51°20.68 3°0.3 74.3 12.2 72 10.4
2003-09-26 08:24:07 51°20.69 3°0.33 73.6 12.2 72 10.3
2003-09-26 08:24:11 51°20.69 3°0.35 73.4 12.1 71 10.5
2003-09-26 08:24:15 51°20.7 3°0.37 73.9 12.2 73 10.4
2003-09-26 08:24:21 51°20.7 3°0.4 74.7 12.1 73 10.5
2003-09-26 08:24:27 51°20.71 3°0.43 75.6 12.1 75 10.3
2003-09-26 08:24:31 51°20.71 3°0.45 76.2 12.1 75 10.4
2003-09-26 08:24:35 51°20.72 3°0.47 76.3 12.2 75 10.4
2003-09-26 08:24:41 51°20.72 3°0.5 76.2 12.2 74 10.3
2003-09-26 08:24:47 51°20.73 3°0.54 75.7 12.2 74 10.4
2003-09-26 08:24:51 51°20.73 3°0.56 75.2 12.2 73 10.5
2003-09-26 08:24:57 51°20.74 3°0.59 74.8 12.2 73 10.3
2003-09-26 08:25:01 51°20.74 3°0.61 74.5 12.2 73 10.4
2003-09-26 08:25:07 51°20.75 3°0.64 74.7 12.2 73 10.5
2003-09-26 08:25:11 51°20.75 3°0.66 75 12.2 74 10.4
2003-09-26 08:25:17 51°20.76 3°0.69 76.1 12.2 76 10.4